Latest Weather Observations for Tibooburra Airport

IDN60801

Issued at 6:43 pm EDT Wednesday 29 January 2020 (issued every 10 minutes, with the page automatically refreshed every 10 minutes)

About weather observations | Map of weather stations | Latest weather observations for NSW | Other Formats
Station Details ID: 046126 Name: TIBOOBURRA AIRPORT Lat: -29.44 Lon: 142.06 Height: 176.4 m
Data from the previous 72 hours. | See also: Recent months at Tibooburra Airport
Date/Time
EDT
Temp
°C
App
Temp
°C
Dew
Point
°C
Rel
Hum
%
Delta-T
°C
Wind Press
QNH
hPa
Press
MSL
hPa
Rain since
9am
mm
Dir  Spd
km/h
Gust
km/h
Spd
kts
Gust
kts
29/06:30pm 41.0 36.3 6.0 12 19.8 ESE 20 32 11 17 1008.1 1006.8 0.0
29/06:00pm 41.2 37.1 6.1 12 19.9 ESE 17 26 9 14 1008.2 1006.9 0.0
29/05:30pm 41.1 38.1 6.0 12 19.8 ESE 11 26 6 14 1008.6 1007.3 0.0
29/05:00pm 41.0 36.9 6.0 12 19.8 E 17 26 9 14 1009.0 1007.7 0.0
29/04:30pm 40.8 36.2 5.8 12 19.6 ESE 19 37 10 20 1009.4 1008.1 0.0
29/04:00pm 41.3 36.9 4.9 11 20.2 ESE 17 32 9 17 1009.8 1008.5 0.0
29/03:30pm 40.4 35.9 4.3 11 19.8 ESE 17 33 9 18 1010.2 1009.0 0.0
29/03:00pm 39.4 34.4 3.5 11 19.4 E 19 33 10 18 1010.8 1009.5 0.0
29/02:30pm 39.5 33.9 3.6 11 19.4 ESE 22 32 12 17 1011.3 1010.0 0.0
29/02:00pm 39.4 35.5 3.5 11 19.4 ENE 13 24 7 13 1011.7 1010.4 0.0
29/01:30pm 38.2 32.8 2.6 11 18.8 E 20 30 11 16 1012.3 1011.0 0.0
29/01:00pm 37.9 32.3 3.6 12 18.4 E 22 35 12 19 1012.8 1011.5 0.0
29/12:30pm 37.5 30.9 -0.7 9 19.1 ESE 24 35 13 19 1013.2 1011.9 0.0
29/12:00pm 36.5 28.8 0.0 10 18.3 E 30 37 16 20 1013.5 1012.2 0.0
29/11:30am 36.4 27.7 -3.1 8 18.9 ESE 33 48 18 26 1013.6 1012.3 0.0
29/11:00am 35.6 26.7 -2.1 9 18.2 ESE 35 44 19 24 1013.6 1012.3 0.0
29/10:30am 34.9 25.7 -4.2 8 18.2 ESE 35 43 19 23 1013.6 1012.3 0.0
29/10:00am 33.7 25.0 -3.5 9 17.3 ESE 33 43 18 23 1013.5 1012.2 0.0
29/09:30am 32.3 23.6 -3.2 10 16.4 SE 33 44 18 24 1013.4 1012.1 0.0
29/09:00am 31.1 23.0 -2.8 11 15.7 SE 30 43 16 23 1013.4 1012.1 0.0
29/08:30am 29.7 22.0 -2.7 12 14.8 SE 28 35 15 19 1013.6 1012.3 0.0
29/08:00am 29.0 22.5 -2.2 13 14.3 SE 22 30 12 16 1013.5 1012.2 0.0
29/07:30am 28.4 22.3 -2.6 13 14.1 SSE 20 30 11 16 1013.2 1011.9 0.0
29/07:00am 28.3 22.3 -1.7 14 13.8 SSE 20 28 11 15 1012.9 1011.6 0.0
29/06:30am 28.5 22.4 -2.6 13 14.1 SE 20 30 11 16 1012.7 1011.4 0.0
29/06:00am 28.9 22.2 -4.5 11 14.7 SE 22 28 12 15 1012.4 1011.1 0.0
29/05:30am 29.2 22.7 -5.5 10 15.1 SSE 20 26 11 14 1012.3 1011.0 0.0
29/05:00am 29.8 23.3 -6.4 9 15.6 SE 20 30 11 16 1012.3 1011.0 0.0
29/04:30am 30.2 23.5 -7.7 8 16.0 SE 20 26 11 14 1012.0 1010.7 0.0
29/04:00am 30.6 23.6 -7.4 8 16.2 SE 22 30 12 16 1011.9 1010.6 0.0
29/03:30am 30.9 24.6 -5.6 9 16.1 SSE 19 26 10 14 1011.9 1010.6 0.0
29/03:00am 31.4 25.0 -5.2 9 16.3 SSE 20 24 11 13 1012.0 1010.7 0.0
29/02:30am 31.7 26.0 -3.6 10 16.2 SE 17 20 9 11 1012.0 1010.7 0.0
29/02:00am 32.1 26.1 -3.3 10 16.4 SSE 19 22 10 12 1012.0 1010.7 0.0
29/01:30am 32.6 26.0 -2.9 10 16.6 SSE 22 28 12 15 1011.9 1010.6 0.0
29/01:00am 33.4 26.9 -2.3 10 16.9 SE 22 30 12 16 1011.9 1010.6 0.0
29/12:30am 33.8 27.0 -2.0 10 17.1 SE 24 32 13 17 1011.8 1010.5 0.0
29/12:00am 34.4 27.6 -1.6 10 17.4 SE 24 32 13 17 1011.7 1010.4 0.0
 
Date/Time
EDT
Temp
°C
App
Temp
°C
Dew
Point
°C
Rel
Hum
%
Delta-T
°C
Wind Press
QNH
hPa
Press
MSL
hPa
Rain since
9am
mm
Dir  Spd
km/h
Gust
km/h
Spd
kts
Gust
kts
28/11:30pm 34.9 28.2 -1.2 10 17.6 SE 24 33 13 18 1011.5 1010.2 0.0
28/11:00pm 35.5 28.1 -0.8 10 17.9 SE 28 35 15 19 1011.4 1010.1 0.0
28/10:30pm 36.0 28.4 -1.8 9 18.4 SE 28 33 15 18 1011.2 1009.9 0.0
28/10:00pm 36.6 29.9 -1.4 9 18.7 SSE 24 33 13 18 1010.8 1009.5 0.0
28/09:30pm 37.0 29.8 0.4 10 18.6 SSE 28 39 15 21 1010.4 1009.1 0.0
28/09:00pm 37.6 29.7 0.8 10 18.9 SSE 32 43 17 23 1009.9 1008.6 0.0
28/08:30pm 38.2 30.1 -0.2 9 19.4 SSE 32 43 17 23 1009.4 1008.1 0.0
28/08:00pm 39.2 32.2 2.0 10 19.6 SSE 28 35 15 19 1009.0 1007.7 0.0
28/07:30pm 39.6 32.7 2.3 10 19.8 SSE 28 37 15 20 1008.7 1007.4 0.0
28/07:00pm 40.2 33.7 2.8 10 20.1 SSE 26 39 14 21 1008.4 1007.1 0.0
28/06:30pm 40.4 34.2 4.3 11 19.8 SSE 26 37 14 20 1008.3 1007.0 0.0
28/06:00pm 40.3 35.2 4.2 11 19.8 SE 20 35 11 19 1008.5 1007.2 0.0
28/05:30pm 40.8 35.8 4.6 11 20.0 S 20 33 11 18 1008.5 1007.2 0.0
28/05:00pm 40.4 34.6 4.3 11 19.8 SSE 24 37 13 20 1008.8 1007.5 0.0
28/04:30pm 40.8 36.0 5.8 12 19.6 SSE 20 35 11 19 1009.2 1007.9 0.0
28/04:00pm 40.4 35.8 6.7 13 19.2 SSE 20 30 11 16 1009.4 1008.1 0.0
28/03:30pm 40.0 35.4 6.4 13 19.0 SE 20 33 11 18 1009.8 1008.5 0.0
28/03:00pm 40.0 35.8 7.4 14 18.7 ESE 19 32 10 17 1010.4 1009.1 0.0
28/02:30pm 39.4 34.5 7.0 14 18.4 E 22 33 12 18 1010.8 1009.5 0.0
28/02:00pm 38.7 35.1 8.4 16 17.5 ESE 17 26 9 14 1011.1 1009.8 0.0
28/01:30pm 38.9 35.3 8.5 16 17.6 SE 17 32 9 17 1011.5 1010.2 0.0
28/01:00pm 37.5 34.3 8.3 17 16.8 SE 15 26 8 14 1011.9 1010.6 0.0
28/12:30pm 37.2 33.7 8.9 18 16.4 ESE 17 24 9 13 1012.2 1010.9 0.0
28/12:00pm 36.9 33.8 8.7 18 16.2 SE 15 24 8 13 1012.5 1011.2 0.0
28/11:30am 35.8 31.9 7.0 17 16.1 SE 17 26 9 14 1012.6 1011.3 0.0
28/11:00am 35.4 30.6 5.8 16 16.2 ESE 20 30 11 16 1012.7 1011.4 0.0
28/10:30am 34.7 29.3 4.3 15 16.2 ESE 22 32 12 17 1012.9 1011.6 0.0
28/10:00am 33.6 27.6 3.4 15 15.7 SE 24 32 13 17 1012.8 1011.5 0.0
28/09:30am 32.7 27.0 2.7 15 15.4 ESE 22 28 12 15 1012.7 1011.4 0.0
28/09:00am 31.7 26.0 2.8 16 14.8 SE 22 30 12 16 1012.4 1011.1 0.0
28/08:30am 31.0 26.1 2.3 16 14.5 SE 17 26 9 14 1012.2 1010.9 0.0
28/08:00am 30.0 26.8 3.1 18 13.7 SSE 9 13 5 7 1011.9 1010.6 0.0
28/07:30am 28.6 25.6 4.2 21 12.5 S 9 11 5 6 1011.5 1010.2 0.0
28/07:00am 27.5 24.5 3.9 22 12.0 SSW 9 11 5 6 1011.1 1009.8 0.0
28/06:30am 27.9 24.8 3.6 21 12.3 SSW 9 11 5 6 1010.9 1009.6 0.0
28/06:00am 28.8 25.3 3.6 20 12.8 S 11 13 6 7 1010.6 1009.3 0.0
28/05:30am 29.5 25.6 3.5 19 13.2 SSE 13 17 7 9 1010.5 1009.2 0.0
28/05:00am 29.9 25.6 3.0 18 13.6 SSE 15 19 8 10 1010.4 1009.1 0.0
28/04:30am 30.6 25.8 2.8 17 14.1 SSE 17 20 9 11 1010.2 1009.0 0.0
28/04:00am 31.2 25.4 2.4 16 14.6 SSE 22 30 12 16 1010.2 1009.0 0.0
28/03:30am 31.7 26.2 1.9 15 15.0 SSE 20 30 11 16 1010.4 1009.1 0.0
28/03:00am 31.6 28.0 5.2 19 14.0 SSE 13 20 7 11 1010.2 1009.0 0.0
28/02:30am 31.6 30.0 11.4 29 11.8 SSW 11 13 6 7 1010.2 1009.0 0.0
28/02:00am 31.5 31.2 12.8 32 11.2 SE 6 11 3 6 1010.2 1009.0 0.0
28/01:30am 32.2 31.0 12.9 31 11.6 NE 11 13 6 7 1010.4 1009.1 0.0
28/01:00am 32.8 30.5 11.9 28 12.4 E 15 17 8 9 1010.2 1009.0 0.0
28/12:30am 33.3 29.9 5.8 18 14.9 ESE 13 17 7 9 1010.0 1008.7 0.0
28/12:00am 33.5 29.6 3.3 15 15.7 SE 13 15 7 8 1009.9 1008.6 0.0
 
Date/Time
EDT
Temp
°C
App
Temp
°C
Dew
Point
°C
Rel
Hum
%
Delta-T
°C
Wind Press
QNH
hPa
Press
MSL
hPa
Rain since
9am
mm
Dir  Spd
km/h
Gust
km/h
Spd
kts
Gust
kts
27/11:30pm 34.9 31.2 4.4 15 16.3 SSE 13 15 7 8 1009.7 1008.4 0.0
27/11:00pm 35.5 32.1 5.8 16 16.3 SSE 13 17 7 9 1009.7 1008.4 0.0
27/10:30pm 36.0 34.8 9.5 20 15.4 SSE 6 9 3 5 1009.4 1008.1 0.0
27/10:00pm 36.0 36.7 12.3 24 14.4 CALM 0 0 0 0 1009.2 1007.9 0.0
27/09:30pm 36.2 35.6 12.4 24 14.4 NNE 7 11 4 6 1008.9 1007.6 0.0
27/09:00pm 36.5 34.9 12.7 24 14.5 NNE 13 17 7 9 1008.6 1007.3 0.0
27/08:30pm 37.4 35.2 10.7 20 15.9 NE 13 22 7 12 1008.2 1006.9 0.0
27/08:00pm 37.3 34.3 12.7 23 15.1 NE 20 28 11 15 1008.0 1006.7 0.0
27/07:30pm 39.1 37.0 11.3 19 16.8 E 13 28 7 15 1007.6 1006.3 0.0
27/07:00pm 40.1 35.6 4.0 11 19.7 SSE 17 28 9 15 1007.3 1006.0 0.0
27/06:30pm 40.2 34.5 2.8 10 20.0 SSE 22 32 12 17 1007.3 1006.0 0.0
27/06:00pm 40.1 35.0 4.0 11 19.7 S 20 30 11 16 1007.3 1006.0 0.0
27/05:30pm 40.4 35.8 1.4 9 20.5 SE 15 26 8 14 1007.4 1006.1 0.0
27/05:00pm 41.1 37.2 3.4 10 20.5 SSW 13 24 7 13 1007.3 1006.0 0.0
27/04:30pm 41.8 38.0 4.0 10 20.8 SSW 13 30 7 16 1007.5 1006.2 0.0
27/04:00pm 40.4 35.9 4.3 11 19.8 SSE 17 35 9 19 1007.8 1006.5 0.0
27/03:30pm 39.7 36.3 6.1 13 18.9 SSW 13 20 7 11 1008.3 1007.0 0.0
27/03:00pm 40.0 37.3 7.4 14 18.7 SE 11 22 6 12 1008.8 1007.5 0.0
27/02:30pm 39.6 36.9 9.1 16 17.9 SE 13 24 7 13 1009.3 1008.0 0.0
27/02:00pm 38.1 36.3 9.6 18 16.7 SE 9 20 5 11 1009.9 1008.6 0.0
27/01:30pm 37.4 35.0 9.9 19 16.2 SE 13 20 7 11 1010.5 1009.2 0.0
27/01:00pm 36.7 34.5 9.3 19 15.9 SSE 11 19 6 10 1010.8 1009.5 0.0
27/12:30pm 36.2 33.9 8.9 19 15.7 SE 11 24 6 13 1011.1 1009.8 0.0
27/12:00pm 35.6 32.8 8.4 19 15.5 SSE 13 24 7 13 1011.2 1009.9 0.0
27/11:30am 35.5 32.6 8.3 19 15.5 SE 13 20 7 11 1011.6 1010.3 0.0
27/11:00am 33.9 29.1 4.6 16 15.6 SE 19 26 10 14 1011.5 1010.2 0.0
27/10:30am 33.8 28.2 3.6 15 15.8 SSE 22 32 12 17 1011.5 1010.2 0.0
27/10:00am 32.1 26.1 3.1 16 14.9 SE 24 30 13 16 1011.5 1010.2 0.0
27/09:30am 30.8 24.4 1.2 15 14.6 SE 24 30 13 16 1011.6 1010.3 0.0
27/09:00am 29.8 24.2 1.3 16 14.0 SE 20 28 11 15 1011.7 1010.4 0.0
27/08:30am 28.7 23.5 0.4 16 13.6 SSE 17 24 9 13 1011.3 1010.0 0.0
27/08:00am 27.4 21.6 0.2 17 12.9 S 20 26 11 14 1010.9 1009.6 0.0
27/07:30am 26.4 21.2 0.2 18 12.3 SSW 17 20 9 11 1010.7 1009.4 0.0
27/07:00am 25.8 20.9 -0.3 18 12.1 SSW 15 19 8 10 1010.1 1008.9 0.0
27/06:30am 26.4 21.0 -1.4 16 12.7 S 17 20 9 11 1009.8 1008.5 0.0
27/06:00am 26.7 22.1 -1.2 16 12.9 S 13 19 7 10 1009.7 1008.4 0.0
27/05:30am 27.0 21.5 -1.8 15 13.1 S 17 19 9 10 1009.5 1008.2 0.0
27/05:00am 27.6 22.1 -2.3 14 13.6 SSE 17 20 9 11 1009.3 1008.0 0.0
27/04:30am 28.2 22.2 -2.8 13 14.0 SSE 19 26 10 14 1009.2 1007.9 0.0
27/04:00am 28.4 22.5 -2.6 13 14.1 SSE 19 24 10 13 1009.4 1008.1 0.0
27/03:30am 28.5 22.4 -3.6 12 14.3 SSE 19 24 10 13 1009.7 1008.4 0.0
27/03:00am 29.3 23.0 -4.2 11 14.9 SSE 20 28 11 15 1010.1 1008.9 0.0
27/02:30am 29.7 23.3 -5.1 10 15.3 SE 20 26 11 14 1010.4 1009.1 0.0
27/02:00am 30.0 23.6 -4.9 10 15.4 SSE 20 26 11 14 1010.2 1009.0 0.0
27/01:30am 30.3 24.1 -4.7 10 15.6 SSE 19 24 10 13 1010.2 1009.0 0.0
27/01:00am 30.4 24.5 -6.0 9 15.9 SSE 17 20 9 11 1010.5 1009.2 0.0
27/12:30am 30.4 25.2 -6.0 9 15.8 S 13 17 7 9 1010.6 1009.3 0.0
27/12:00am 30.7 24.8 -5.8 9 16.0 S 17 20 9 11 1010.5 1009.2 0.0
 
Date/Time
EDT
Temp
°C
App
Temp
°C
Dew
Point
°C
Rel
Hum
%
Delta-T
°C
Wind Press
QNH
hPa
Press
MSL
hPa
Rain since
9am
mm
Dir  Spd
km/h
Gust
km/h
Spd
kts
Gust
kts
26/11:30pm 31.1 25.6 -5.5 9 16.2 SSW 15 19 8 10 1010.6 1009.3 0.0
26/11:00pm 31.3 26.2 -5.3 9 16.3 SSW 13 17 7 9 1010.6 1009.3 0.0
26/10:30pm 31.5 26.8 -5.2 9 16.3 SSW 11 13 6 7 1010.4 1009.1 0.0
26/10:00pm 32.1 27.1 -4.7 9 16.6 SSW 13 15 7 8 1010.2 1009.0 0.0
26/09:30pm 32.9 27.7 -5.7 8 17.2 S 13 15 7 8 1009.9 1008.6 0.0
26/09:00pm 33.6 28.5 -5.2 8 17.6 S 13 17 7 9 1009.7 1008.4 0.0
26/08:30pm 34.6 29.2 -4.4 8 18.0 S 15 20 8 11 1009.5 1008.2 0.0
26/08:00pm 35.3 29.2 -3.9 8 18.4 S 19 24 10 13 1009.1 1007.8 0.0
26/07:30pm 35.9 29.5 -5.2 7 18.9 S 20 30 11 16 1008.9 1007.6 0.0
26/07:00pm 36.5 29.7 -4.8 7 19.3 S 22 32 12 17 1008.6 1007.3 0.0

Other formats

Comma delimited format used in spreadsheet applications
http://www.bom.gov.au/fwo/IDN60801/IDN60801.95485.axf

JavaScript Object Notation format (JSON) in row-major order
http://www.bom.gov.au/fwo/IDN60801/IDN60801.95485.json

Data quality

Most of these data are generated automatically and are frequently updated. Quality checks on data are not normally performed. It is possible for incorrect values to appear. Refer to information at About Latest Weather Observations and please check the disclaimer before using these data.